Time;durP1;ratioP1;P1;durP2;ratioP2;P2;SDS_P1;SDS_P2;PMS_P1;PMS_P2;Temp;Humidity;BMP_temperature;BMP_pressure;BME280_temperature;BME280_humidity;BME280_pressure;Samples;Min_cycle;Max_cycle;Signal;HPM_P1;HPM_P2
2023/11/16 00:01:50;;;;;;;7.93;1.40;;;;;;;15.96;48.25;101466.94;5033594;28;20040;-58
2023/11/16 00:04:16;;;;;;;5.80;1.15;;;;;;;15.98;47.67;101473.91;5033142;28;20084;-59
2023/11/16 00:06:42;;;;;;;14.10;2.15;;;;;;;15.97;48.55;101466.78;5033448;28;20401;-58
2023/11/16 00:09:07;;;;;;;9.05;2.25;;;;;;;15.99;47.90;101469.34;5033438;28;20039;-58
2023/11/16 00:11:33;;;;;;;7.40;1.50;;;;;;;15.98;47.17;101464.94;5030880;28;20052;-58
2023/11/16 00:13:58;;;;;;;7.85;1.83;;;;;;;16.00;47.61;101465.63;5004717;28;20034;-58
2023/11/16 00:16:23;;;;;;;8.43;1.63;;;;;;;16.02;47.08;101458.25;4993883;28;20084;-59
2023/11/16 00:18:49;;;;;;;3.42;2.05;;;;;;;16.02;48.72;101461.81;5000576;28;20033;-58
2023/11/16 00:21:15;;;;;;;6.80;1.42;;;;;;;16.01;48.56;101457.41;4997930;28;20506;-58
2023/11/16 00:23:41;;;;;;;7.18;2.15;;;;;;;15.95;47.49;101451.72;4996392;28;20429;-58
2023/11/16 00:26:09;;;;;;;7.07;1.70;;;;;;;16.01;47.52;101456.53;4992249;28;20038;-58
2023/11/16 00:28:35;;;;;;;8.50;1.50;;;;;;;16.00;48.67;101454.81;4976924;28;20077;-58
2023/11/16 00:31:01;;;;;;;3.90;1.80;;;;;;;16.01;47.84;101461.94;5014144;28;20037;-58
2023/11/16 00:33:26;;;;;;;10.10;2.00;;;;;;;16.01;48.16;101464.66;5033124;28;20056;-58
2023/11/16 00:35:51;;;;;;;8.85;1.92;;;;;;;15.99;47.72;101455.84;5032895;28;20554;-58
2023/11/16 00:38:16;;;;;;;7.25;1.90;;;;;;;16.00;48.74;101460.22;5032706;28;20041;-58
2023/11/16 00:40:46;;;;;;;9.35;1.73;;;;;;;16.00;48.79;101452.97;5032944;28;20037;-58
2023/11/16 00:43:11;;;;;;;6.80;2.08;;;;;;;16.00;47.79;101454.81;5032993;28;20037;-58
2023/11/16 00:45:37;;;;;;;6.15;1.80;;;;;;;16.01;48.53;101451.13;5032931;28;20036;-58
2023/11/16 00:48:02;;;;;;;4.80;2.03;;;;;;;16.00;47.77;101447.56;5032840;28;20034;-58
2023/11/16 00:50:28;;;;;;;7.80;2.05;;;;;;;16.01;47.50;101454.69;5032708;28;20033;-58
2023/11/16 00:52:55;;;;;;;10.23;1.98;;;;;;;16.02;48.39;101452.84;5032838;28;20056;-58
2023/11/16 00:55:21;;;;;;;7.93;2.55;;;;;;;16.01;48.76;101459.25;5032740;28;20038;-58
2023/11/16 00:57:47;;;;;;;5.38;1.73;;;;;;;15.99;47.77;101453.16;5015434;28;20386;-59
2023/11/16 01:00:14;;;;;;;15.25;1.75;;;;;;;15.95;48.48;101449.03;5015276;28;20037;-58
2023/11/16 01:02:40;;;;;;;9.95;1.70;;;;;;;15.97;47.83;101447.03;5032814;28;20034;-58
2023/11/16 01:05:06;;;;;;;6.22;1.50;;;;;;;15.94;48.84;101431.13;5032965;28;20457;-58
2023/11/16 01:07:32;;;;;;;20.02;2.35;;;;;;;15.94;47.56;101439.22;5032577;28;20474;-58
2023/11/16 01:10:03;;;;;;;8.50;1.88;;;;;;;15.95;48.29;101440.91;5032733;28;20176;-58
2023/11/16 01:12:29;;;;;;;9.25;1.95;;;;;;;15.95;48.45;101446.31;5032606;28;20033;-58
2023/11/16 01:14:59;;;;;;;4.63;1.63;;;;;;;15.92;48.28;101443.91;5033246;28;20037;-58
2023/11/16 01:17:32;;;;;;;7.45;1.77;;;;;;;15.93;49.05;101442.94;5036462;28;20497;-58
2023/11/16 01:19:59;;;;;;;13.45;1.70;;;;;;;15.92;48.52;101441.22;5036451;28;20072;-58
2023/11/16 01:22:26;;;;;;;8.52;1.88;;;;;;;15.90;48.69;101424.31;5036386;28;20063;-58
2023/11/16 01:24:52;;;;;;;5.57;1.85;;;;;;;15.88;48.44;101423.63;5036492;28;20596;-58
2023/11/16 01:27:26;;;;;;;6.32;1.58;;;;;;;15.91;48.22;101423.31;5036352;28;20045;-58
2023/11/16 01:29:51;;;;;;;8.48;1.48;;;;;;;15.87;48.82;101417.34;5036195;28;20040;-57
2023/11/16 01:32:17;;;;;;;6.43;2.28;;;;;;;15.90;48.19;101432.41;5036523;28;20117;-57
2023/11/16 01:34:45;;;;;;;7.55;1.52;;;;;;;15.88;48.23;101431.72;5036384;28;20034;-58
2023/11/16 01:37:11;;;;;;;8.20;2.70;;;;;;;15.89;49.06;101426.16;5036251;28;20045;-58
2023/11/16 01:39:39;;;;;;;14.50;1.73;;;;;;;15.90;48.94;101422.47;5036178;28;20108;-58
2023/11/16 01:42:06;;;;;;;10.13;2.47;;;;;;;15.90;47.81;101421.59;5036212;28;20094;-58
2023/11/16 01:44:31;;;;;;;11.93;2.00;;;;;;;15.91;48.81;101420.63;5035953;28;20040;-58
2023/11/16 01:46:58;;;;;;;3.15;1.27;;;;;;;15.91;48.15;101420.63;5036071;28;20033;-58
2023/11/16 01:49:23;;;;;;;6.55;1.17;;;;;;;15.90;49.11;101416.19;5017886;28;20395;-58
2023/11/16 01:51:53;;;;;;;9.88;2.05;;;;;;;15.90;47.80;101414.34;5035889;28;20116;-58
2023/11/16 01:54:20;;;;;;;10.63;1.73;;;;;;;15.92;49.23;101419.59;5035883;28;20034;-58
2023/11/16 01:56:47;;;;;;;8.73;1.55;;;;;;;15.87;48.68;101416.50;5035358;28;20041;-58
2023/11/16 01:59:13;;;;;;;8.00;1.63;;;;;;;15.93;48.89;101422.16;5018019;28;20483;-58
2023/11/16 02:01:39;;;;;;;11.90;1.58;;;;;;;15.92;47.52;101408.78;5035580;28;20052;-58
2023/11/16 02:04:04;;;;;;;6.15;1.42;;;;;;;15.91;48.73;101413.38;5018101;28;20124;-58
2023/11/16 02:06:33;;;;;;;5.90;2.17;;;;;;;15.91;47.85;101413.38;5035516;28;20025;-57
2023/11/16 02:08:59;;;;;;;16.38;2.38;;;;;;;15.91;48.25;101407.09;5035816;28;20017;-58
2023/11/16 02:11:25;;;;;;;15.93;1.55;;;;;;;15.89;48.18;101409.09;5018199;28;20021;-58
2023/11/16 02:13:50;;;;;;;9.75;1.80;;;;;;;15.88;48.48;101407.41;5035753;28;20579;-58
2023/11/16 02:16:15;;;;;;;9.23;2.13;;;;;;;15.87;48.02;101406.53;5035724;28;20022;-58
2023/11/16 02:18:41;;;;;;;6.90;1.63;;;;;;;15.86;49.33;101398.56;5035898;28;20445;-58
2023/11/16 02:21:06;;;;;;;1.92;1.58;;;;;;;15.84;49.21;101396.03;5035311;28;20521;-58
2023/11/16 02:23:36;;;;;;;8.52;2.70;;;;;;;15.83;48.99;101397.03;5017567;28;20552;-58
2023/11/16 02:26:02;;;;;;;8.77;1.65;;;;;;;15.76;48.62;101390.53;5017735;28;20028;-58
2023/11/16 02:28:29;;;;;;;5.65;1.55;;;;;;;15.81;49.28;101400.88;5035136;28;20029;-58
2023/11/16 02:30:57;;;;;;;11.50;1.80;;;;;;;15.82;49.10;101399.88;5035380;28;20022;-58
2023/11/16 02:33:23;;;;;;;6.38;1.30;;;;;;;15.74;47.95;101384.44;5035344;28;20113;-58
2023/11/16 02:35:52;;;;;;;5.28;1.40;;;;;;;15.79;49.25;101394.78;5017306;28;20116;-58
2023/11/16 02:38:18;;;;;;;5.18;1.30;;;;;;;15.77;48.17;101383.28;5035161;28;20083;-58
2023/11/16 02:40:43;;;;;;;9.38;1.90;;;;;;;15.74;49.16;101396.06;5034873;28;20431;-58
2023/11/16 02:43:09;;;;;;;4.90;1.45;;;;;;;15.71;48.14;101387.44;5034875;28;20033;-58
2023/11/16 02:45:34;;;;;;;6.60;1.60;;;;;;;15.71;48.92;101388.28;5035158;28;20030;-58
2023/11/16 02:48:00;;;;;;;3.22;1.33;;;;;;;15.71;48.73;101392.84;5034882;28;20061;-58
2023/11/16 02:50:26;;;;;;;5.35;1.20;;;;;;;15.71;49.37;101401.78;5034714;28;20374;-58
2023/11/16 02:52:54;;;;;;;15.52;1.58;;;;;;;15.70;48.04;101400.06;5035044;28;20037;-58
2023/11/16 02:55:26;;;;;;;7.15;2.35;;;;;;;15.69;48.90;101390.25;5000743;28;20033;-58
2023/11/16 02:57:55;;;;;;;13.90;2.03;;;;;;;15.67;48.40;101386.88;5034652;28;20034;-58
2023/11/16 03:00:20;;;;;;;2.58;1.02;;;;;;;15.66;47.90;101385.16;5034600;28;20044;-58
2023/11/16 03:02:46;;;;;;;6.20;1.70;;;;;;;15.66;48.99;101387.84;5034835;28;20037;-59
2023/11/16 03:05:14;;;;;;;10.35;1.58;;;;;;;15.64;48.20;101400.66;5033864;28;20037;-58
2023/11/16 03:07:41;;;;;;;4.75;1.52;;;;;;;15.64;48.95;101389.88;5034770;28;20037;-58
2023/11/16 03:10:11;;;;;;;3.92;1.50;;;;;;;15.63;48.70;101393.56;5034973;28;20041;-58
2023/11/16 03:12:36;;;;;;;5.95;2.33;;;;;;;15.62;48.92;101391.88;5034656;28;20049;-58
2023/11/16 03:15:05;;;;;;;10.10;1.90;;;;;;;15.60;49.25;101387.63;5034432;28;20536;-58
2023/11/16 03:17:32;;;;;;;4.43;1.40;;;;;;;15.57;49.54;101367.16;5017347;28;20037;-58
2023/11/16 03:19:57;;;;;;;5.85;1.30;;;;;;;15.56;48.55;101362.75;5034385;28;20511;-58
2023/11/16 03:22:22;;;;;;;7.97;2.28;;;;;;;15.55;47.89;101361.03;5034164;28;20076;-58
2023/11/16 03:24:48;;;;;;;13.63;2.45;;;;;;;15.56;49.27;101364.59;5034316;28;20026;-58
2023/11/16 03:27:13;;;;;;;4.28;1.23;;;;;;;15.54;48.92;101367.47;5034184;28;20385;-58
2023/11/16 03:29:39;;;;;;;8.20;2.10;;;;;;;15.56;49.06;101373.56;5034241;28;20076;-58
2023/11/16 03:32:07;;;;;;;8.43;1.50;;;;;;;15.58;49.21;101378.78;5016672;28;20033;-58
2023/11/16 03:34:32;;;;;;;11.43;2.20;;;;;;;15.56;49.61;101365.44;5034250;28;20033;-58
2023/11/16 03:36:58;;;;;;;5.63;1.63;;;;;;;15.54;48.49;101367.47;5033828;28;20377;-58
2023/11/16 03:39:23;;;;;;;3.83;1.25;;;;;;;15.54;48.90;101372.84;5033428;28;20138;-58
2023/11/16 03:41:48;;;;;;;5.07;1.45;;;;;;;15.59;49.26;101369.69;5034084;28;20397;-58
2023/11/16 03:44:14;;;;;;;6.50;1.60;;;;;;;15.58;48.10;101363.44;5033807;28;20501;-58
2023/11/16 03:46:40;;;;;;;5.40;1.10;;;;;;;15.59;49.12;101381.34;5033912;28;20048;-58
2023/11/16 03:49:05;;;;;;;16.40;2.20;;;;;;;15.57;48.70;101379.81;5034036;28;20042;-58
2023/11/16 03:51:31;;;;;;;6.13;1.60;;;;;;;15.54;49.59;101380.97;5033881;28;20047;-59
2023/11/16 03:53:57;;;;;;;10.40;1.88;;;;;;;15.55;49.82;101379.94;5033967;28;20045;-58
2023/11/16 03:56:23;;;;;;;5.82;1.35;;;;;;;15.53;49.20;101376.53;5034036;28;20029;-63
2023/11/16 03:58:48;;;;;;;4.78;1.60;;;;;;;15.51;48.66;101378.56;5033561;28;20034;-63
2023/11/16 04:01:13;;;;;;;4.53;1.55;;;;;;;15.51;48.55;101378.56;5033780;28;20034;-63
2023/11/16 04:03:39;;;;;;;7.25;1.42;;;;;;;15.50;48.68;101376.84;5033745;28;20042;-63
2023/11/16 04:06:05;;;;;;;15.23;1.92;;;;;;;15.48;48.61;101378.84;5015816;28;20128;-63
2023/11/16 04:08:30;;;;;;;3.30;1.50;;;;;;;15.47;48.48;101371.72;5033642;28;20025;-63
2023/11/16 04:10:55;;;;;;;9.48;1.58;;;;;;;15.45;48.65;101372.84;5033408;28;20048;-63
2023/11/16 04:13:21;;;;;;;9.73;1.50;;;;;;;15.41;48.83;101360.66;5033372;28;20455;-63
2023/11/16 04:15:47;;;;;;;7.45;1.42;;;;;;;15.40;48.64;101365.19;5033287;28;20083;-63
2023/11/16 04:18:12;;;;;;;5.25;1.67;;;;;;;15.40;48.99;101357.09;5034003;28;20037;-64
2023/11/16 04:20:37;;;;;;;5.25;1.15;;;;;;;15.43;49.33;101367.59;5036653;28;20083;-63
2023/11/16 04:23:03;;;;;;;7.63;1.77;;;;;;;15.43;48.57;101358.66;5037604;28;20037;-63
2023/11/16 04:25:31;;;;;;;9.15;1.83;;;;;;;15.39;49.84;101358.09;5036690;28;20386;-63
2023/11/16 04:28:04;;;;;;;7.65;1.58;;;;;;;15.39;48.33;101358.09;5033599;28;20095;-63
2023/11/16 04:30:34;;;;;;;14.20;1.73;;;;;;;15.36;48.57;101363.78;5034095;28;20033;-63
2023/11/16 04:33:00;;;;;;;6.00;2.35;;;;;;;15.35;49.36;101350.44;5033162;28;20036;-63
2023/11/16 04:35:26;;;;;;;12.95;2.78;;;;;;;15.32;48.42;101351.59;5033354;28;20025;-63
2023/11/16 04:37:54;;;;;;;6.90;2.42;;;;;;;15.31;49.44;101352.56;5033272;28;20527;-63
2023/11/16 04:40:19;;;;;;;9.68;1.58;;;;;;;15.30;49.76;101361.66;5033276;28;20057;-62
2023/11/16 04:42:47;;;;;;;6.45;1.88;;;;;;;15.28;49.60;101355.56;5015793;28;20044;-62
2023/11/16 04:45:14;;;;;;;6.43;1.85;;;;;;;15.28;49.73;101360.97;5013039;28;20497;-63
2023/11/16 04:47:41;;;;;;;6.80;1.70;;;;;;;15.24;49.78;101350.63;5013181;28;20038;-62
2023/11/16 04:50:07;;;;;;;5.22;1.73;;;;;;;15.23;49.46;101341.66;5012942;28;20038;-62
2023/11/16 04:52:34;;;;;;;7.00;1.80;;;;;;;15.23;48.48;101347.06;5013492;28;20405;-63
2023/11/16 04:55:00;;;;;;;3.33;1.88;;;;;;;15.20;48.66;101336.56;5013225;28;20034;-62
2023/11/16 04:57:25;;;;;;;13.02;2.10;;;;;;;15.19;49.67;101328.63;5013427;28;20034;-62
2023/11/16 04:59:50;;;;;;;8.13;3.05;;;;;;;15.14;48.76;101320.94;5013108;28;20638;-63
2023/11/16 05:02:16;;;;;;;5.78;2.25;;;;;;;15.18;49.43;101335.84;5012947;28;20092;-62
2023/11/16 05:04:44;;;;;;;10.82;2.20;;;;;;;15.18;49.96;101333.16;5013112;28;20026;-58
2023/11/16 05:07:09;;;;;;;6.00;2.75;;;;;;;15.17;48.72;101334.16;5013076;28;20038;-59
2023/11/16 05:09:35;;;;;;;9.43;1.98;;;;;;;15.18;49.71;101330.47;5013051;28;20601;-58
2023/11/16 05:12:00;;;;;;;7.03;2.38;;;;;;;15.18;50.12;101322.38;5012990;28;20116;-58
2023/11/16 05:14:26;;;;;;;7.07;1.83;;;;;;;15.19;49.82;101328.63;5012666;28;20030;-58
2023/11/16 05:16:51;;;;;;;8.35;1.77;;;;;;;15.16;49.73;101321.63;5012995;28;20116;-58
2023/11/16 05:19:16;;;;;;;5.63;2.00;;;;;;;15.18;50.23;101322.38;5012655;28;20069;-58
2023/11/16 05:21:42;;;;;;;11.27;2.00;;;;;;;15.14;48.76;101321.81;5012518;28;20121;-58
2023/11/16 05:24:07;;;;;;;6.95;1.50;;;;;;;15.22;49.96;101325.59;5012558;28;20057;-59
2023/11/16 05:26:33;;;;;;;6.07;2.30;;;;;;;15.22;50.11;101326.44;5012676;28;20045;-57
2023/11/16 05:28:58;;;;;;;12.13;2.25;;;;;;;15.24;49.41;101327.19;5012761;28;20088;-58
2023/11/16 05:31:24;;;;;;;7.65;2.20;;;;;;;15.25;48.51;101318.06;5012766;28;20030;-58
2023/11/16 05:33:49;;;;;;;9.73;1.98;;;;;;;15.25;49.66;101323.47;5012627;28;20037;-57
2023/11/16 05:36:14;;;;;;;4.55;1.48;;;;;;;15.26;49.35;101318.91;5012581;28;20084;-57
2023/11/16 05:38:40;;;;;;;5.30;1.80;;;;;;;15.27;48.81;101328.72;5012537;28;20042;-58
2023/11/16 05:41:06;;;;;;;10.13;2.40;;;;;;;15.25;49.83;101318.06;4995136;28;20136;-58
2023/11/16 05:43:31;;;;;;;15.48;4.32;;;;;;;15.24;48.55;101312.84;5012554;28;20061;-57
2023/11/16 05:45:57;;;;;;;11.00;2.45;;;;;;;15.21;49.71;101307.72;5012577;28;20050;-58
2023/11/16 05:48:22;;;;;;;8.25;1.75;;;;;;;15.19;49.95;101301.63;5012693;28;20117;-58
2023/11/16 05:50:48;;;;;;;16.08;2.65;;;;;;;15.18;48.58;101300.78;4994762;28;20111;-58
2023/11/16 05:53:13;;;;;;;7.30;2.20;;;;;;;15.19;49.79;101296.25;5012443;28;20034;-57
2023/11/16 05:55:39;;;;;;;10.70;2.83;;;;;;;15.14;48.31;101288.56;5012594;28;20537;-57
2023/11/16 05:58:07;;;;;;;7.05;2.03;;;;;;;15.15;49.75;101296.53;5012421;28;20030;-57
2023/11/16 06:00:36;;;;;;;12.40;2.15;;;;;;;15.15;49.96;101296.53;4995321;28;20045;-58
2023/11/16 06:03:02;;;;;;;8.73;2.15;;;;;;;15.17;48.35;101293.66;5016235;28;20122;-58
2023/11/16 06:05:28;;;;;;;10.25;2.08;;;;;;;15.13;48.75;101286.88;5016077;28;20030;-58
2023/11/16 06:07:54;;;;;;;6.20;2.17;;;;;;;15.16;48.40;101281.16;4998516;28;20033;-57
2023/11/16 06:10:19;;;;;;;8.18;2.00;;;;;;;15.17;49.94;101282.88;4998295;28;20030;-58
2023/11/16 06:12:46;;;;;;;6.60;2.25;;;;;;;15.18;48.47;101281.03;5016019;28;20132;-58
2023/11/16 06:15:14;;;;;;;6.72;2.40;;;;;;;15.21;49.93;101284.28;5015735;28;20042;-58
2023/11/16 06:17:42;;;;;;;8.23;1.67;;;;;;;15.20;49.53;101285.28;5015696;28;20096;-58
2023/11/16 06:20:10;;;;;;;7.65;2.88;;;;;;;15.23;48.37;101282.28;5015583;28;20034;-57
2023/11/16 06:22:36;;;;;;;9.05;2.15;;;;;;;15.25;48.97;101280.28;4997509;28;20104;-59
2023/11/16 06:25:04;;;;;;;11.68;1.98;;;;;;;15.27;49.96;101272.88;4997773;28;20025;-58
2023/11/16 06:27:30;;;;;;;3.38;1.70;;;;;;;15.29;49.56;101270.91;5015822;28;20018;-58
2023/11/16 06:29:56;;;;;;;7.07;2.03;;;;;;;15.29;49.32;101264.66;5015646;28;20024;-58
2023/11/16 06:32:22;;;;;;;6.95;1.70;;;;;;;15.31;49.62;101263.50;5015589;28;20105;-58
2023/11/16 06:34:48;;;;;;;10.98;2.25;;;;;;;15.30;49.72;101259.09;5015135;28;20543;-58
2023/11/16 06:37:13;;;;;;;6.40;1.90;;;;;;;15.30;49.62;101253.69;5015376;28;20042;-58
2023/11/16 06:39:38;;;;;;;6.82;1.85;;;;;;;15.29;48.21;101249.31;5015556;28;20112;-58
2023/11/16 06:42:05;;;;;;;7.93;2.00;;;;;;;15.24;49.64;101238.13;5015408;28;20045;-59
2023/11/16 06:44:31;;;;;;;10.18;2.13;;;;;;;15.23;49.40;101238.25;5015574;28;20100;-57
2023/11/16 06:46:57;;;;;;;4.30;1.67;;;;;;;15.20;48.22;101227.75;5015342;28;20076;-57
2023/11/16 06:49:26;;;;;;;6.22;2.08;;;;;;;15.20;49.96;101234.00;5015257;28;20022;-57
2023/11/16 06:51:52;;;;;;;7.95;1.77;;;;;;;15.20;48.19;101228.59;5015523;28;20029;-57
2023/11/16 06:54:18;;;;;;;5.93;2.15;;;;;;;15.20;48.39;101223.22;5015153;28;20071;-57
2023/11/16 06:56:44;;;;;;;7.28;2.50;;;;;;;15.14;48.07;101207.59;5015020;28;20022;-57
2023/11/16 06:59:12;;;;;;;6.93;2.70;;;;;;;15.19;49.89;101220.69;5015148;28;20025;-57
2023/11/16 07:01:39;;;;;;;4.80;1.90;;;;;;;15.16;49.26;101214.56;5015184;28;20390;-56
2023/11/16 07:04:07;;;;;;;4.05;1.92;;;;;;;15.15;48.99;101209.31;5015111;28;20037;-57
2023/11/16 07:06:33;;;;;;;8.15;1.38;;;;;;;15.15;49.29;101203.94;5015016;28;20026;-58
2023/11/16 07:08:58;;;;;;;6.88;2.63;;;;;;;15.11;48.12;101189.88;5014756;28;20034;-57
2023/11/16 07:11:24;;;;;;;3.47;1.30;;;;;;;15.09;48.40;101188.31;5014533;28;20031;-57
2023/11/16 07:13:49;;;;;;;2.20;1.30;;;;;;;15.06;49.27;101183.22;5013397;28;20107;-57
2023/11/16 07:16:14;;;;;;;8.85;2.30;;;;;;;15.03;48.97;101186.22;5014388;28;20030;-57
2023/11/16 07:18:40;;;;;;;3.05;1.95;;;;;;;15.00;47.92;101181.13;5014546;28;20030;-58
2023/11/16 07:21:06;;;;;;;5.70;2.00;;;;;;;14.98;48.49;101181.28;5014395;28;20033;-58
2023/11/16 07:23:32;;;;;;;3.53;1.80;;;;;;;14.98;48.33;101185.81;5014646;28;20026;-58
2023/11/16 07:26:00;;;;;;;7.10;1.50;;;;;;;14.88;49.17;101174.22;5014336;28;20498;-57
2023/11/16 07:28:26;;;;;;;6.40;1.45;;;;;;;14.92;49.42;101181.00;5014250;28;20509;-57
2023/11/16 07:30:52;;;;;;;9.60;1.77;;;;;;;14.92;48.59;101173.78;5014542;28;20025;-57
2023/11/16 07:33:18;;;;;;;5.70;1.40;;;;;;;14.90;47.78;101170.38;5014345;28;20084;-57
2023/11/16 07:35:46;;;;;;;4.57;1.80;;;;;;;14.91;49.09;101168.50;5014259;28;20048;-57
2023/11/16 07:38:13;;;;;;;9.95;2.05;;;;;;;14.88;48.43;101158.06;5014230;28;20057;-57
2023/11/16 07:40:39;;;;;;;7.95;1.85;;;;;;;14.87;49.18;101159.03;5014052;28;20033;-57
2023/11/16 07:43:05;;;;;;;5.07;2.08;;;;;;;14.87;49.22;101161.72;5014467;28;20038;-57
2023/11/16 07:45:31;;;;;;;9.30;2.55;;;;;;;14.87;48.84;101156.34;5014149;28;20037;-57
2023/11/16 07:47:59;;;;;;;11.63;2.63;;;;;;;14.88;49.42;101149.97;5014105;28;20085;-57
2023/11/16 07:50:25;;;;;;;4.75;2.38;;;;;;;14.89;48.84;101144.41;5014006;28;20386;-57
2023/11/16 07:52:53;;;;;;;6.15;2.75;;;;;;;14.93;47.74;101144.97;5013977;28;20087;-57
2023/11/16 07:55:21;;;;;;;9.10;2.72;;;;;;;14.94;47.51;101142.09;5013941;28;20037;-58
2023/11/16 07:57:50;;;;;;;8.38;2.22;;;;;;;14.99;48.27;101144.38;5013537;28;20493;-57
2023/11/16 08:00:26;;;;;;;11.48;2.10;;;;;;;15.02;49.01;101142.19;5013899;28;20038;-58
2023/11/16 08:05:41;;;;;;;3.15;1.40;;;;;;;15.09;48.69;101139.75;5013933;28;20069;-57
2023/11/16 08:08:07;;;;;;;5.05;1.73;;;;;;;15.13;48.48;101124.97;5013688;28;20036;-57
2023/11/16 08:10:34;;;;;;;4.28;1.58;;;;;;;15.18;49.45;101133.47;5013686;28;20050;-57
2023/11/16 08:13:00;;;;;;;8.85;1.40;;;;;;;15.20;49.43;101128.75;5013781;28;20034;-57
2023/11/16 08:15:26;;;;;;;5.72;2.10;;;;;;;15.27;47.76;101140.63;5013561;28;20402;-57
2023/11/16 08:17:53;;;;;;;3.63;1.42;;;;;;;15.35;48.89;101146.16;5013713;28;20498;-57
2023/11/16 08:20:23;;;;;;;6.32;2.25;;;;;;;15.42;47.88;101141.81;5013372;28;20038;-57
2023/11/16 08:22:51;;;;;;;5.65;1.58;;;;;;;15.48;48.81;101135.84;5013523;28;20064;-57
2023/11/16 08:25:23;;;;;;;5.75;2.40;;;;;;;15.58;48.85;101122.25;5013133;28;20457;-57
2023/11/16 08:27:50;;;;;;;4.28;1.48;;;;;;;15.67;48.90;101116.78;5013675;28;20030;-58
2023/11/16 08:30:16;;;;;;;5.65;1.52;;;;;;;15.79;49.11;101111.16;5013602;28;20109;-57
2023/11/16 08:32:42;;;;;;;8.68;1.92;;;;;;;15.88;47.94;101110.22;5013403;28;20444;-57
2023/11/16 08:35:08;;;;;;;4.15;1.75;;;;;;;15.94;48.99;101115.81;5013436;28;20053;-57
2023/11/16 08:37:34;;;;;;;4.50;1.40;;;;;;;15.98;48.42;101102.84;5013257;28;20440;-58
2023/11/16 08:39:59;;;;;;;5.80;1.77;;;;;;;15.99;48.40;101115.38;5013383;28;20022;-57
2023/11/16 08:42:24;;;;;;;2.50;1.42;;;;;;;15.99;48.02;101108.13;5013154;28;20034;-57
2023/11/16 08:44:50;;;;;;;5.25;2.25;;;;;;;16.02;48.25;101112.34;5012351;28;20026;-57
2023/11/16 08:47:17;;;;;;;10.35;1.52;;;;;;;16.03;48.07;101108.63;5013985;28;20026;-57
2023/11/16 08:49:43;;;;;;;9.38;2.03;;;;;;;16.05;48.26;101112.03;5014964;28;20108;-57
2023/11/16 08:52:10;;;;;;;5.15;1.85;;;;;;;16.05;48.32;101107.47;5014878;28;20054;-57
2023/11/16 08:54:35;;;;;;;2.53;1.67;;;;;;;16.08;48.33;101107.16;5014850;28;20034;-57
2023/11/16 08:57:00;;;;;;;7.22;1.70;;;;;;;16.11;49.28;101100.56;5015454;28;20435;-57
2023/11/16 08:59:26;;;;;;;4.05;1.42;;;;;;;16.13;48.03;101093.19;5015717;28;20371;-57
2023/11/16 09:01:51;;;;;;;6.82;1.67;;;;;;;16.14;48.52;101089.44;5015263;28;20034;-57
2023/11/16 09:04:17;;;;;;;6.47;1.48;;;;;;;16.14;48.33;101089.44;5016618;28;20088;-57
2023/11/16 09:06:44;;;;;;;7.50;1.95;;;;;;;16.16;49.59;101085.59;5015862;28;20084;-57
2023/11/16 09:09:33;;;;;;;5.43;1.50;;;;;;;16.17;49.53;101079.19;5014913;28;20036;-57
2023/11/16 09:11:54;;;;;;;10.07;2.17;;;;;;;16.19;49.61;101074.47;5014378;28;20099;-57
2023/11/16 09:14:20;;;;;;;6.20;1.90;;;;;;;16.21;49.06;101074.31;5013343;28;20101;-57
2023/11/16 09:16:45;;;;;;;3.67;1.60;;;;;;;16.24;49.67;101079.41;5012955;28;20022;-57
2023/11/16 09:19:11;;;;;;;13.98;1.95;;;;;;;16.23;48.00;101069.59;5012979;28;20033;-57
2023/11/16 09:21:39;;;;;;;4.05;1.90;;;;;;;16.27;48.97;101057.47;5012713;28;20061;-57
2023/11/16 09:24:05;;;;;;;10.75;1.70;;;;;;;16.31;49.28;101058.81;5013101;28;20033;-57
2023/11/16 09:26:33;;;;;;;8.35;1.67;;;;;;;16.33;48.88;101048.72;5012750;28;20049;-57
2023/11/16 09:28:59;;;;;;;6.30;1.90;;;;;;;16.36;49.03;101051.06;5013069;28;20084;-57
2023/11/16 09:31:24;;;;;;;3.38;1.52;;;;;;;16.37;48.47;101052.78;5011583;28;20025;-57
2023/11/16 09:33:52;;;;;;;6.13;1.60;;;;;;;16.37;49.34;101052.78;5012653;28;20176;-57
2023/11/16 09:36:18;;;;;;;6.40;1.63;;;;;;;16.36;47.86;101051.06;5014011;28;20030;-58
2023/11/16 09:38:48;;;;;;;5.28;1.38;;;;;;;16.30;48.41;101032.81;5016523;28;20060;-57
2023/11/16 09:41:23;;;;;;;5.88;1.65;;;;;;;16.38;48.18;101056.34;5016560;28;20392;-57
2023/11/16 09:43:54;;;;;;;4.38;1.75;;;;;;;16.38;49.51;101054.47;5016620;28;20044;-57
2023/11/16 09:46:25;;;;;;;8.35;1.67;;;;;;;16.40;48.56;101038.94;5015080;28;20030;-57
2023/11/16 09:48:53;;;;;;;6.05;1.30;;;;;;;16.38;49.25;101027.44;5016459;28;20540;-57
2023/11/16 09:51:19;;;;;;;2.75;1.23;;;;;;;16.42;47.93;101027.94;5016381;28;20113;-58
2023/11/16 09:53:46;;;;;;;12.05;1.60;;;;;;;16.39;48.69;101020.19;5015174;28;20168;-57
2023/11/16 09:56:14;;;;;;;4.80;2.47;;;;;;;16.41;48.10;101016.31;5016457;28;20030;-57
2023/11/16 09:58:41;;;;;;;2.30;1.40;;;;;;;16.40;48.81;101003.78;5014927;28;20053;-57
2023/11/16 10:01:10;;;;;;;10.32;2.70;;;;;;;16.40;48.77;100998.38;5015061;28;20160;-57
2023/11/16 10:03:36;;;;;;;3.95;2.00;;;;;;;16.38;48.90;100992.28;5014892;28;20066;-57
2023/11/16 10:06:06;;;;;;;10.70;2.20;;;;;;;16.43;48.41;100992.66;4973778;28;20045;-57
2023/11/16 10:08:33;;;;;;;3.80;1.73;;;;;;;16.46;49.33;100991.47;4996141;28;20533;-57
2023/11/16 10:11:06;;;;;;;9.95;1.80;;;;;;;16.46;49.08;100991.47;4996818;28;20065;-57
2023/11/16 10:13:35;;;;;;;6.35;2.55;;;;;;;16.47;49.28;100991.28;4996339;28;20092;-58
2023/11/16 10:16:06;;;;;;;6.93;2.28;;;;;;;16.50;48.13;100998.25;4996356;28;20030;-57
2023/11/16 10:18:32;;;;;;;7.97;1.73;;;;;;;16.49;48.21;101002.81;4996225;28;20038;-58
2023/11/16 10:20:57;;;;;;;6.05;1.42;;;;;;;16.47;49.02;100987.78;4996116;28;20049;-57
2023/11/16 10:23:23;;;;;;;7.00;1.75;;;;;;;16.48;48.64;100995.69;4996174;28;20398;-57
2023/11/16 10:25:49;;;;;;;7.72;1.45;;;;;;;16.47;48.65;100985.06;4996028;28;20126;-57
2023/11/16 10:28:19;;;;;;;10.45;2.20;;;;;;;16.49;49.20;100992.00;4999861;28;20033;-57
2023/11/16 10:30:50;;;;;;;6.10;2.45;;;;;;;16.50;48.44;100977.44;5015386;28;20040;-57
2023/11/16 10:33:17;;;;;;;8.63;2.28;;;;;;;16.53;48.45;100978.97;5015515;28;20034;-57
2023/11/16 10:35:46;;;;;;;8.85;2.42;;;;;;;16.50;48.98;100966.63;5015512;28;20034;-57
2023/11/16 10:38:15;;;;;;;3.38;1.67;;;;;;;16.57;49.16;100969.56;5015509;28;20088;-58
2023/11/16 10:40:42;;;;;;;4.60;1.75;;;;;;;16.57;48.82;100974.97;4997929;28;20041;-57
2023/11/16 10:43:12;;;;;;;4.30;2.03;;;;;;;16.57;48.92;100978.53;5015352;28;20034;-57
2023/11/16 10:45:40;;;;;;;12.20;2.35;;;;;;;16.58;48.92;100976.69;4997794;28;20030;-57
2023/11/16 10:48:05;;;;;;;11.07;2.15;;;;;;;16.60;49.19;100977.34;4997957;28;20053;-56
2023/11/16 10:50:32;;;;;;;6.35;2.38;;;;;;;16.61;48.26;100971.78;5015465;28;20458;-57
2023/11/16 10:53:01;;;;;;;7.53;2.40;;;;;;;16.60;48.21;100975.50;4997800;28;20034;-56
2023/11/16 10:55:29;;;;;;;8.07;2.35;;;;;;;16.59;48.65;100970.25;5015306;28;20117;-57
2023/11/16 10:58:00;;;;;;;8.48;2.65;;;;;;;16.57;48.30;100969.56;5015511;28;20034;-57
2023/11/16 11:00:29;;;;;;;8.55;2.55;;;;;;;16.57;48.36;100958.75;5014865;28;20034;-57
2023/11/16 11:02:56;;;;;;;9.65;1.95;;;;;;;16.54;48.97;100957.22;4997717;28;20034;-57
2023/11/16 11:05:22;;;;;;;11.07;2.55;;;;;;;16.54;49.14;100949.13;4997429;28;20049;-57
2023/11/16 11:07:53;;;;;;;4.80;2.13;;;;;;;16.50;49.32;100945.00;5014820;28;20034;-59
2023/11/16 11:10:23;;;;;;;11.90;2.50;;;;;;;16.50;49.49;100938.78;5015025;28;20022;-59
2023/11/16 11:12:49;;;;;;;7.07;2.45;;;;;;;16.51;48.71;100944.00;5014704;28;20044;-59
2023/11/16 11:15:30;;;;;;;8.25;2.45;;;;;;;16.51;50.00;100935.88;5014984;28;20022;-56
2023/11/16 11:17:57;;;;;;;5.55;2.58;;;;;;;16.51;48.29;100937.75;5015022;28;20030;-58
2023/11/16 11:20:32;;;;;;;11.93;2.83;;;;;;;16.53;49.39;100923.06;5014844;28;20034;-57
2023/11/16 11:23:06;;;;;;;5.40;2.85;;;;;;;16.56;49.17;100916.47;5012614;28;20042;-57
2023/11/16 11:25:32;;;;;;;6.35;2.85;;;;;;;16.54;48.28;100908.53;5009996;28;20417;-58